Terminal Aerodrome Forecast
Issued by NWS Kansas City/Pleasant Hill, MO

Home | Current Version | Previous Version | Text Only | Print | Product List | Glossary On
Versions: 1 2 3 4 5 6 7 8 9 10 11 12 13 14 15 16 17 18 19 20 21 22
000
FTUS43 KEAX 030300 AAA
TAFMCI
TAF AMD
KMCI 030310Z 0303/0324 07008KT 5SM BR SCT015 BKN045
      TEMPO 0307/0311 2SM BR OVC010
     FM031300 07007KT 5SM BR SCT015=

USA.gov is the U.S. government's official web portal to all federal, state and local government web resources and services.